ARG1715 SAAR-SABE
Flight info
| Callsign | ARG1715 |
|---|---|
| Flight time | 0h 28m |
| Altitude | 23000 |
| Route | VASAL2C VASAL W20 MULTA W24 SNT SNT8Q |
| Aircraft | E190/M-SDE3GILORVW/S |
Departure
| Time | 2026-05-04 22:16 |
|---|---|
| Airport | Rosario Islas Malvinas International Airport (SAAR) |
Arrival
| Time | 2026-05-04 22:44 |
|---|---|
| Airport | Aeroparque Jorge Newbery (SABE) |
| Time | Latitude | Longitude | Altitude | Speed | Heading |
|---|---|---|---|---|---|
| 2026-05-04 21:45 | -32.91680 | -60.78155 | 94 ft | 0 kts | 111° |
| 2026-05-04 22:06 | -32.91673 | -60.78177 | 95 ft | 4 kts | 109° |
| 2026-05-04 22:07 | -32.91664 | -60.78207 | 94 ft | 4 kts | 110° |
| 2026-05-04 22:07 | -32.91653 | -60.78236 | 94 ft | 4 kts | 128° |
| 2026-05-04 22:07 | -32.91638 | -60.78251 | 95 ft | 3 kts | 200° |
| 2026-05-04 22:07 | -32.91614 | -60.78240 | 94 ft | 4 kts | 201° |
| 2026-05-04 22:08 | -32.91609 | -60.78238 | 94 ft | 0 kts | 201° |
| 2026-05-04 22:11 | -32.91626 | -60.78246 | 95 ft | 5 kts | 201° |
| 2026-05-04 22:12 | -32.91664 | -60.78264 | 94 ft | 4 kts | 201° |
| 2026-05-04 22:12 | -32.91700 | -60.78280 | 95 ft | 7 kts | 201° |
| 2026-05-04 22:12 | -32.91741 | -60.78311 | 94 ft | 8 kts | 234° |
| 2026-05-04 22:12 | -32.91760 | -60.78379 | 95 ft | 10 kts | 257° |
| 2026-05-04 22:13 | -32.91776 | -60.78459 | 96 ft | 8 kts | 258° |
| 2026-05-04 22:13 | -32.91789 | -60.78526 | 96 ft | 8 kts | 257° |
| 2026-05-04 22:13 | -32.91781 | -60.78596 | 94 ft | 9 kts | 299° |
| 2026-05-04 22:13 | -32.91736 | -60.78659 | 94 ft | 11 kts | 311° |
| 2026-05-04 22:14 | -32.91726 | -60.78672 | 93 ft | 1 kts | 311° |
| 2026-05-04 22:14 | -32.91711 | -60.78688 | 95 ft | 0 kts | 318° |
| 2026-05-04 22:14 | -32.91709 | -60.78691 | 94 ft | 2 kts | 318° |
| 2026-05-04 22:15 | -32.91681 | -60.78718 | 95 ft | 8 kts | 321° |
| 2026-05-04 22:15 | -32.91633 | -60.78755 | 96 ft | 11 kts | 1° |
| 2026-05-04 22:15 | -32.91417 | -60.78707 | 97 ft | 63 kts | 11° |
| 2026-05-04 22:15 | -32.90769 | -60.78562 | 97 ft | 124 kts | 11° |
| 2026-05-04 22:16 | -32.89782 | -60.78340 | 309 ft | 155 kts | 12° |
| 2026-05-04 22:16 | -32.88688 | -60.78105 | 899 ft | 165 kts | 9° |
| 2026-05-04 22:16 | -32.87478 | -60.77883 | 1473 ft | 189 kts | 9° |
| 2026-05-04 22:16 | -32.86131 | -60.77638 | 2177 ft | 206 kts | 7° |
| 2026-05-04 22:17 | -32.84721 | -60.77210 | 3144 ft | 216 kts | 26° |
| 2026-05-04 22:17 | -32.83588 | -60.75883 | 3848 ft | 244 kts | 60° |
| 2026-05-04 22:17 | -32.83358 | -60.73883 | 4953 ft | 254 kts | 98° |
| 2026-05-04 22:17 | -32.83903 | -60.71897 | 6107 ft | 254 kts | 114° |
| 2026-05-04 22:18 | -32.84924 | -60.70234 | 7178 ft | 252 kts | 135° |
| 2026-05-04 22:18 | -32.86195 | -60.68745 | 8201 ft | 255 kts | 137° |
| 2026-05-04 22:18 | -32.87511 | -60.67300 | 9176 ft | 260 kts | 141° |
| 2026-05-04 22:18 | -32.88852 | -60.65860 | 10113 ft | 266 kts | 141° |
| 2026-05-04 22:19 | -32.90299 | -60.64446 | 10859 ft | 277 kts | 154° |
| 2026-05-04 22:19 | -32.92123 | -60.63576 | 11442 ft | 290 kts | 167° |
| 2026-05-04 22:19 | -32.94114 | -60.62893 | 12093 ft | 306 kts | 167° |
| 2026-05-04 22:19 | -32.96065 | -60.61664 | 12671 ft | 335 kts | 142° |
| 2026-05-04 22:20 | -32.97437 | -60.59335 | 13460 ft | 354 kts | 117° |
| 2026-05-04 22:20 | -32.98384 | -60.56589 | 14346 ft | 361 kts | 116° |
| 2026-05-04 22:20 | -32.99411 | -60.53829 | 15221 ft | 367 kts | 120° |
| 2026-05-04 22:20 | -33.00748 | -60.51222 | 16100 ft | 369 kts | 130° |
| 2026-05-04 22:21 | -33.02354 | -60.48820 | 16979 ft | 373 kts | 135° |
| 2026-05-04 22:21 | -33.04085 | -60.46474 | 17787 ft | 379 kts | 137° |
| 2026-05-04 22:21 | -33.05870 | -60.44128 | 18521 ft | 384 kts | 137° |
| 2026-05-04 22:21 | -33.07683 | -60.41763 | 19218 ft | 389 kts | 138° |
| 2026-05-04 22:22 | -33.09527 | -60.39367 | 19924 ft | 394 kts | 138° |
| 2026-05-04 22:22 | -33.11391 | -60.36945 | 20612 ft | 399 kts | 138° |
| 2026-05-04 22:22 | -33.13276 | -60.34495 | 21297 ft | 403 kts | 138° |
| 2026-05-04 22:22 | -33.15183 | -60.32016 | 21963 ft | 408 kts | 137° |
| 2026-05-04 22:23 | -33.17115 | -60.29502 | 22606 ft | 413 kts | 137° |
| 2026-05-04 22:23 | -33.19079 | -60.26946 | 22991 ft | 425 kts | 137° |
| 2026-05-04 22:23 | -33.21126 | -60.24287 | 23022 ft | 444 kts | 137° |
| 2026-05-04 22:23 | -33.23237 | -60.21535 | 23016 ft | 453 kts | 137° |
| 2026-05-04 22:24 | -33.25341 | -60.18782 | 22855 ft | 456 kts | 137° |
| 2026-05-04 22:24 | -33.27475 | -60.15985 | 22875 ft | 456 kts | 137° |
| 2026-05-04 22:24 | -33.29615 | -60.13183 | 22881 ft | 456 kts | 137° |
| 2026-05-04 22:24 | -33.31062 | -60.11289 | 22885 ft | 457 kts | 137° |
| 2026-05-04 22:25 | -33.33891 | -60.07582 | 22888 ft | 457 kts | 137° |
| 2026-05-04 22:25 | -33.36038 | -60.04768 | 22889 ft | 457 kts | 137° |
| 2026-05-04 22:25 | -33.38181 | -60.01956 | 22879 ft | 457 kts | 137° |
| 2026-05-04 22:25 | -33.40331 | -59.99156 | 22885 ft | 456 kts | 139° |
| 2026-05-04 22:26 | -33.42551 | -59.96441 | 22881 ft | 456 kts | 140° |
| 2026-05-04 22:26 | -33.44016 | -59.94644 | 22889 ft | 456 kts | 139° |
| 2026-05-04 22:26 | -33.46206 | -59.91887 | 22887 ft | 457 kts | 138° |
| 2026-05-04 22:26 | -33.48372 | -59.89104 | 22888 ft | 457 kts | 138° |
| 2026-05-04 22:27 | -33.50524 | -59.86309 | 22896 ft | 456 kts | 138° |
| 2026-05-04 22:27 | -33.52672 | -59.83503 | 22900 ft | 456 kts | 138° |
| 2026-05-04 22:27 | -33.54805 | -59.80714 | 22879 ft | 457 kts | 138° |
| 2026-05-04 22:27 | -33.56964 | -59.77884 | 22888 ft | 457 kts | 138° |
| 2026-05-04 22:28 | -33.59109 | -59.75071 | 22886 ft | 457 kts | 138° |
| 2026-05-04 22:28 | -33.61253 | -59.72255 | 22888 ft | 457 kts | 138° |
| 2026-05-04 22:28 | -33.63401 | -59.69433 | 22892 ft | 457 kts | 138° |
| 2026-05-04 22:28 | -33.65541 | -59.66618 | 22892 ft | 457 kts | 138° |
| 2026-05-04 22:29 | -33.67682 | -59.63801 | 22891 ft | 457 kts | 138° |
| 2026-05-04 22:29 | -33.69823 | -59.60981 | 22891 ft | 457 kts | 138° |
| 2026-05-04 22:29 | -33.71969 | -59.58152 | 22889 ft | 458 kts | 138° |
| 2026-05-04 22:29 | -33.74111 | -59.55325 | 22898 ft | 458 kts | 138° |
| 2026-05-04 22:30 | -33.76252 | -59.52498 | 22902 ft | 452 kts | 138° |
| 2026-05-04 22:30 | -33.78315 | -59.49760 | 22902 ft | 433 kts | 138° |
| 2026-05-04 22:30 | -33.80317 | -59.47106 | 22907 ft | 424 kts | 139° |
| 2026-05-04 22:30 | -33.82277 | -59.44519 | 22908 ft | 424 kts | 139° |
| 2026-05-04 22:31 | -33.84266 | -59.41894 | 22903 ft | 424 kts | 139° |
| 2026-05-04 22:31 | -33.86252 | -59.39264 | 22906 ft | 424 kts | 138° |
| 2026-05-04 22:31 | -33.88234 | -59.36637 | 22927 ft | 425 kts | 139° |
| 2026-05-04 22:31 | -33.90224 | -59.33999 | 22787 ft | 428 kts | 139° |
| 2026-05-04 22:32 | -33.92219 | -59.31350 | 22472 ft | 425 kts | 138° |
| 2026-05-04 22:32 | -33.94194 | -59.28723 | 22028 ft | 421 kts | 138° |
| 2026-05-04 22:32 | -33.96146 | -59.26124 | 21520 ft | 417 kts | 138° |
| 2026-05-04 22:32 | -33.98085 | -59.23540 | 21012 ft | 411 kts | 138° |
| 2026-05-04 22:33 | -33.99989 | -59.21005 | 20537 ft | 406 kts | 138° |
| 2026-05-04 22:33 | -34.01874 | -59.18495 | 20051 ft | 401 kts | 138° |
| 2026-05-04 22:33 | -34.03736 | -59.16012 | 19596 ft | 397 kts | 139° |
| 2026-05-04 22:33 | -34.05558 | -59.13585 | 19206 ft | 393 kts | 139° |
| 2026-05-04 22:34 | -34.07406 | -59.11120 | 18862 ft | 390 kts | 139° |
| 2026-05-04 22:34 | -34.09199 | -59.08729 | 18551 ft | 386 kts | 139° |
| 2026-05-04 22:34 | -34.10974 | -59.06359 | 18234 ft | 371 kts | 139° |
| 2026-05-04 22:34 | -34.12688 | -59.04060 | 17218 ft | 362 kts | 139° |
| 2026-05-04 22:35 | -34.14392 | -59.01801 | 16144 ft | 366 kts | 138° |
| 2026-05-04 22:35 | -34.16123 | -58.99499 | 15005 ft | 374 kts | 137° |
| 2026-05-04 22:35 | -34.17845 | -58.97195 | 14316 ft | 362 kts | 137° |
| 2026-05-04 22:35 | -34.19507 | -58.94957 | 13835 ft | 356 kts | 137° |
| 2026-05-04 22:36 | -34.21162 | -58.92736 | 13314 ft | 354 kts | 137° |
| 2026-05-04 22:36 | -34.22809 | -58.90528 | 12745 ft | 352 kts | 137° |
| 2026-05-04 22:36 | -34.24429 | -58.88357 | 12184 ft | 349 kts | 137° |
| 2026-05-04 22:36 | -34.26050 | -58.86181 | 11647 ft | 346 kts | 136° |
| 2026-05-04 22:37 | -34.27654 | -58.84024 | 11117 ft | 338 kts | 136° |
| 2026-05-04 22:37 | -34.29163 | -58.81982 | 10573 ft | 319 kts | 136° |
| 2026-05-04 22:37 | -34.30603 | -58.80035 | 10038 ft | 302 kts | 136° |
| 2026-05-04 22:37 | -34.31983 | -58.78174 | 9443 ft | 293 kts | 136° |
| 2026-05-04 22:38 | -34.33326 | -58.76370 | 8824 ft | 282 kts | 135° |
| 2026-05-04 22:38 | -34.34616 | -58.74634 | 8237 ft | 274 kts | 135° |
| 2026-05-04 22:38 | -34.35877 | -58.72940 | 7658 ft | 273 kts | 134° |
| 2026-05-04 22:38 | -34.37138 | -58.71243 | 7081 ft | 270 kts | 134° |
| 2026-05-04 22:39 | -34.38387 | -58.69560 | 6528 ft | 268 kts | 133° |
| 2026-05-04 22:39 | -34.39610 | -58.67909 | 5930 ft | 258 kts | 133° |
| 2026-05-04 22:39 | -34.40791 | -58.66312 | 5317 ft | 251 kts | 133° |
| 2026-05-04 22:39 | -34.41934 | -58.64766 | 4744 ft | 245 kts | 133° |
| 2026-05-04 22:40 | -34.43043 | -58.63271 | 4144 ft | 242 kts | 133° |
| 2026-05-04 22:40 | -34.44178 | -58.61761 | 3644 ft | 243 kts | 133° |
| 2026-05-04 22:40 | -34.45295 | -58.60281 | 3168 ft | 243 kts | 133° |
| 2026-05-04 22:40 | -34.46433 | -58.58782 | 2903 ft | 232 kts | 133° |
| 2026-05-04 22:41 | -34.47327 | -58.57255 | 2829 ft | 217 kts | 117° |
| 2026-05-04 22:41 | -34.47995 | -58.55669 | 2593 ft | 210 kts | 118° |
| 2026-05-04 22:41 | -34.48760 | -58.54224 | 2440 ft | 195 kts | 124° |
| 2026-05-04 22:41 | -34.49508 | -58.52936 | 2238 ft | 179 kts | 126° |
| 2026-05-04 22:42 | -34.50237 | -58.51751 | 1922 ft | 171 kts | 124° |
| 2026-05-04 22:42 | -34.50861 | -58.50603 | 1763 ft | 157 kts | 123° |
| 2026-05-04 22:42 | -34.51463 | -58.49510 | 1429 ft | 156 kts | 122° |
| 2026-05-04 22:42 | -34.52069 | -58.48442 | 1145 ft | 152 kts | 124° |
| 2026-05-04 22:43 | -34.52670 | -58.47381 | 889 ft | 153 kts | 123° |
| 2026-05-04 22:43 | -34.53267 | -58.46322 | 788 ft | 152 kts | 122° |
| 2026-05-04 22:43 | -34.53847 | -58.45268 | 581 ft | 150 kts | 126° |
| 2026-05-04 22:43 | -34.54436 | -58.44231 | 374 ft | 148 kts | 124° |
| 2026-05-04 22:44 | -34.55013 | -58.43208 | 182 ft | 144 kts | 123° |
| 2026-05-04 22:44 | -34.55556 | -58.42238 | 29 ft | 133 kts | 123° |
| 2026-05-04 22:44 | -34.55984 | -58.41474 | 23 ft | 86 kts | 125° |
| 2026-05-04 22:44 | -34.56197 | -58.41064 | 28 ft | 34 kts | 110° |
| 2026-05-04 22:45 | -34.56235 | -58.40870 | 24 ft | 12 kts | 93° |
| 2026-05-04 22:45 | -34.56236 | -58.40826 | 24 ft | 0 kts | 91° |
| 2026-05-04 22:45 | -34.56236 | -58.40825 | 24 ft | 0 kts | 91° |
| 2026-05-04 22:46 | -34.56236 | -58.40820 | 24 ft | 2 kts | 90° |
| 2026-05-04 22:46 | -34.56230 | -58.40811 | 24 ft | 1 kts | 40° |
| 2026-05-04 22:46 | -34.56225 | -58.40812 | 24 ft | 0 kts | 0° |
| 2026-05-04 22:47 | -34.56211 | -58.40823 | 26 ft | 5 kts | 328° |
| 2026-05-04 22:47 | -34.56185 | -58.40856 | 25 ft | 7 kts | 305° |
| 2026-05-04 22:47 | -34.56159 | -58.40912 | 25 ft | 9 kts | 297° |
| 2026-05-04 22:47 | -34.56123 | -58.40982 | 24 ft | 11 kts | 306° |
| 2026-05-04 22:48 | -34.56083 | -58.41047 | 25 ft | 8 kts | 307° |
| 2026-05-04 22:48 | -34.56039 | -58.41044 | 25 ft | 6 kts | 58° |
| 2026-05-04 22:48 | -34.56028 | -58.41002 | 24 ft | 5 kts | 54° |
| 2026-05-04 22:48 | -34.56009 | -58.40981 | 24 ft | 3 kts | 38° |
| 2026-05-04 22:49 | -34.55997 | -58.40970 | 25 ft | 0 kts | 37° |